Sankoushin — JD2465 — position and weather

sailwx.info

Track history (hours):
 
Tides and Currents Weather Stations Pressure Air Temp Water Temp Dewpoint Dewpoint Depression Visibility Wind Speed Wind Dir Waves Ship Positions

Sankoushin

Last reported at 2014-Aug-20 08:10 UTC. Time now 2014-Aug-22 07:56 UTC.
Position N 34°50' E 139°23'.

Length 71 m; draft 4.2 m.

Type: Cargo ship. MMSI: 431000269.

Date/timePositionNaut miles runAvg speedWind from/ knotsBaromVisibWave heightAir tempDewpointWater temp
2014-Aug-20 08:10N 34°50' E 139°23'711.1
2014-Aug-20 07:33N 34°50' E 139°31'2210.2
2014-Aug-20 05:25N 34°54' E 139°57'1011.6
2014-Aug-20 04:33N 35°01' E 140°06'2511.3
2014-Aug-20 02:20N 35°17' E 140°30'4010.5
2014-Aug-19 22:31N 35°54' E 140°46'5 5.4
2014-Aug-19 21:31N 35°56' E 140°40'0 0.0
2014-Aug-19 20:27N 35°56' E 140°40'0 0.0
2014-Aug-19 19:33N 35°56' E 140°40'0 0.0
2014-Aug-19 18:33N 35°56' E 140°40'0 0.0
2014-Aug-19 17:30N 35°56' E 140°40'0 0.0
2014-Aug-19 16:25N 35°56' E 140°40'0 0.0
2014-Aug-19 15:33N 35°56' E 140°40'0 0.0
2014-Aug-19 14:33N 35°56' E 140°40'0 0.0
2014-Aug-19 13:32N 35°56' E 140°40'0 0.0
2014-Aug-19 12:33N 35°56' E 140°40'0 0.0
2014-Aug-19 11:33N 35°56' E 140°40'0 0.0
2014-Aug-19 10:32N 35°56' E 140°40'0 0.0
2014-Aug-19 05:26N 35°56' E 140°40'0 0.1
2014-Aug-19 02:33N 35°55' E 140°40'0 0.0
2014-Aug-19 00:10N 35°55' E 140°40'0 0.0
2014-Aug-18 23:26N 35°55' E 140°40'0 0.0
2014-Aug-18 22:32N 35°55' E 140°40'0 0.0
2014-Aug-18 21:33N 35°55' E 140°40'0 0.0
2014-Aug-18 20:33N 35°55' E 140°40'0 0.0
2014-Aug-18 19:33N 35°55' E 140°40'0 0.0
2014-Aug-18 18:28N 35°55' E 140°40'0 0.0
2014-Aug-18 17:33N 35°55' E 140°40'0 0.0
2014-Aug-18 16:33N 35°55' E 140°40'0 0.0
2014-Aug-18 15:33N 35°55' E 140°40'0 0.0
2014-Aug-18 14:31N 35°55' E 140°40'0 0.0
2014-Aug-18 13:33N 35°55' E 140°40'1 1.5
2014-Aug-18 12:33N 35°56' E 140°42'29 9.4
2014-Aug-18 09:29N 35°27' E 140°42'1513.3
2014-Aug-18 08:21N 35°15' E 140°30'2513.5
2014-Aug-18 06:30N 34°59' E 140°07'1713.2
2014-Aug-18 05:12N 34°52' E 139°48'813.0
2014-Aug-18 04:33N 35°00' E 139°44'1212.4
2014-Aug-18 03:33N 35°12' E 139°46'1212.2
2014-Aug-18 02:33N 35°24' E 139°43'1312.7
2014-Aug-18 01:34N 35°33' E 139°54'8 7.6
2014-Aug-18 00:33N 35°40' E 139°57'3 0.6
2014-Aug-17 18:33N 35°37' E 139°59'0 0.0
2014-Aug-17 17:33N 35°37' E 139°59'0 0.0
2014-Aug-17 16:34N 35°37' E 139°59'0 0.0
2014-Aug-17 15:33N 35°37' E 139°59'0 0.0
2014-Aug-17 14:33N 35°37' E 139°59'0 0.0
2014-Aug-17 13:33N 35°37' E 139°59'0 0.0
2014-Aug-17 12:33N 35°37' E 139°59'0 0.0
2014-Aug-17 11:33N 35°37' E 139°59'0 0.0
2014-Aug-17 10:33N 35°37' E 139°59'0 0.0
2014-Aug-17 09:33N 35°37' E 139°59'0 0.0
2014-Aug-17 08:33N 35°37' E 139°59'0 0.0
2014-Aug-17 07:34N 35°37' E 139°59'0 0.0
2014-Aug-17 06:34N 35°37' E 139°59'0 0.0
2014-Aug-17 05:33N 35°37' E 139°59'0 0.1
2014-Aug-17 04:33N 35°37' E 139°59'0 0.0
2014-Aug-17 03:33N 35°37' E 139°59'0 0.0
2014-Aug-17 02:33N 35°37' E 139°59'0 0.0
2014-Aug-17 01:33N 35°37' E 139°59'0 0.1
2014-Aug-17 00:33N 35°37' E 139°59'4 4.3
2014-Aug-16 23:33N 35°41' E 139°57'0 0.0
2014-Aug-16 22:33N 35°41' E 139°57'0 0.0
2014-Aug-16 21:34N 35°41' E 139°57'0 0.0
2014-Aug-16 20:33N 35°41' E 139°57'0 0.0
2014-Aug-16 19:33N 35°41' E 139°57'0 0.0
2014-Aug-16 18:34N 35°41' E 139°57'0 0.0
2014-Aug-16 17:33N 35°41' E 139°57'0 0.0
2014-Aug-16 16:33N 35°41' E 139°57'0 0.0
2014-Aug-16 15:34N 35°41' E 139°57'0 0.0
2014-Aug-16 14:33N 35°41' E 139°57'0 0.0
2014-Aug-16 13:34N 35°41' E 139°57'0 0.0
2014-Aug-16 12:33N 35°41' E 139°57'0 0.0
2014-Aug-16 11:33N 35°41' E 139°57'0 0.0
2014-Aug-16 10:33N 35°41' E 139°57'0 0.0
2014-Aug-16 09:34N 35°41' E 139°57'0 0.0
2014-Aug-16 08:34N 35°41' E 139°57'0 0.0
2014-Aug-16 07:33N 35°41' E 139°57'0 0.0
2014-Aug-16 06:33N 35°41' E 139°57'0 0.1
2014-Aug-16 05:34N 35°41' E 139°57'5 4.9
2014-Aug-16 04:33N 35°36' E 139°57'1111.4
2014-Aug-16 03:33N 35°27' E 139°49'1110.6
2014-Aug-16 02:34N 35°17' E 139°45'1110.9
2014-Aug-16 01:33N 35°06' E 139°45'1211.9
2014-Aug-16 00:31N 34°57' E 139°34'230 9.6
2014-Aug-15 00:27N 34°05' E 135°02'910.1
2014-Aug-14 23:33N 34°14' E 135°03'11 9.8
2014-Aug-14 22:28N 34°23' E 135°08'1011.3
2014-Aug-14 21:32N 34°31' E 135°17'9 9.2
2014-Aug-14 20:33N 34°35' E 135°27'1 0.3
2014-Aug-14 16:30N 34°34' E 135°27'0 0.1
2014-Aug-14 15:30N 34°34' E 135°27'0 0.1
2014-Aug-14 14:33N 34°34' E 135°27'0 0.1
2014-Aug-14 13:32N 34°34' E 135°27'0 0.0
2014-Aug-14 09:15N 34°34' E 135°27'0 0.1
2014-Aug-14 08:26N 34°34' E 135°27'0 0.1
2014-Aug-14 07:28N 34°34' E 135°27'0 0.5
2014-Aug-14 06:31N 34°34' E 135°27'0 0.2
2014-Aug-14 05:32N 34°34' E 135°27'0 0.0
2014-Aug-14 04:24N 34°34' E 135°27'0 0.0
2014-Aug-14 03:33N 34°34' E 135°27'0 0.0
2014-Aug-14 02:33N 34°34' E 135°27'0 0.1
2014-Aug-14 01:26N 34°34' E 135°27'0 0.0
2014-Aug-13 21:18N 34°34' E 135°27'0 0.0
2014-Aug-13 20:29N 34°34' E 135°27'0 0.0
2014-Aug-13 19:28N 34°34' E 135°27'0 0.1
2014-Aug-13 18:32N 34°34' E 135°27'0 0.0
2014-Aug-13 17:32N 34°34' E 135°27'0 0.0
2014-Aug-13 16:31N 34°34' E 135°27'0 0.0
2014-Aug-13 09:23N 34°34' E 135°27'0 0.4
2014-Aug-13 08:33N 34°35' E 135°27'0 0.1
2014-Aug-13 07:31N 34°35' E 135°27'0 0.0
2014-Aug-13 06:31N 34°35' E 135°27'0 0.0
2014-Aug-13 05:31N 34°35' E 135°27'0 0.0
2014-Aug-13 04:29N 34°35' E 135°27'0 0.1
2014-Aug-13 03:33N 34°35' E 135°27'7 7.3
2014-Aug-13 02:33N 34°42' E 135°24'0 0.1
2014-Aug-12 23:33N 34°41' E 135°24'3 2.8
2014-Aug-12 22:33N 34°40' E 135°21'1 0.6
2014-Aug-12 21:33N 34°39' E 135°21'1211.5
2014-Aug-12 20:33N 34°30' E 135°12'1111.5
2014-Aug-12 19:33N 34°20' E 135°05'1211.2
2014-Aug-12 18:29N 34°09' E 135°02'218 9.8
2014-Aug-11 20:08N 34°53' E 139°21'712.3
2014-Aug-11 19:33N 34°58' E 139°28'1212.2
2014-Aug-11 18:34N 35°05' E 139°40'1111.2
2014-Aug-11 17:33N 35°14' E 139°46'1110.7
2014-Aug-11 16:33N 35°25' E 139°43'1111.0
2014-Aug-11 15:33N 35°34' E 139°51'4 4.3
2014-Aug-11 14:33N 35°37' E 139°48'0 0.0
2014-Aug-11 13:33N 35°37' E 139°48'0 0.0
2014-Aug-11 12:32N 35°37' E 139°48'0 0.0
2014-Aug-11 11:33N 35°37' E 139°48'0 0.0
2014-Aug-11 10:33N 35°37' E 139°48'0 0.0
2014-Aug-11 09:33N 35°37' E 139°48'0 0.0
2014-Aug-11 08:33N 35°37' E 139°48'0 0.0
2014-Aug-11 07:33N 35°37' E 139°48'0 0.0
2014-Aug-11 06:33N 35°37' E 139°48'0 0.0
2014-Aug-11 05:33N 35°37' E 139°48'0 0.0
2014-Aug-11 04:34N 35°37' E 139°48'0 0.0
2014-Aug-11 03:33N 35°37' E 139°48'0 0.0
2014-Aug-11 02:33N 35°37' E 139°48'0 0.0
2014-Aug-11 01:33N 35°37' E 139°48'0 0.0
2014-Aug-11 00:33N 35°37' E 139°48'0 0.0
2014-Aug-10 23:33N 35°37' E 139°48'0 0.0
2014-Aug-10 22:33N 35°37' E 139°48'0 0.0
2014-Aug-10 21:33N 35°37' E 139°48'0 0.0
2014-Aug-10 20:33N 35°37' E 139°48'0 0.0
2014-Aug-10 19:34N 35°37' E 139°48'0 0.0
2014-Aug-10 18:33N 35°37' E 139°48'0 0.0
2014-Aug-10 17:33N 35°37' E 139°48'0 0.0
2014-Aug-10 16:33N 35°37' E 139°48'0 0.0
2014-Aug-10 15:34N 35°37' E 139°48'0 0.0
2014-Aug-10 14:33N 35°37' E 139°48'0 0.0
2014-Aug-10 13:33N 35°37' E 139°48'0 0.0
2014-Aug-10 12:33N 35°37' E 139°48'0 0.0
2014-Aug-10 11:34N 35°37' E 139°48'0 0.0
2014-Aug-10 10:33N 35°37' E 139°48'0 0.0
2014-Aug-10 09:34N 35°37' E 139°48'0 0.0
2014-Aug-10 08:33N 35°37' E 139°48'  
Track history (hours):
 
Tides and Currents Weather Stations Pressure Air Temp Water Temp Dewpoint Dewpoint Depression Visibility Wind Speed Wind Dir Waves Ship Positions

Sankoushin

Last reported at 2014-Aug-20 08:10 UTC. Time now 2014-Aug-22 07:56 UTC.
Position N 34°50' E 139°23'.

Length 71 m; draft 4.2 m.

Type: Cargo ship. MMSI: 431000269.

Date/timePositionNaut miles runAvg speedWind from/ knotsBaromVisibWave heightAir tempDewpointWater temp
2014-Aug-20 08:10N 34°50' E 139°23'711.1
2014-Aug-20 07:33N 34°50' E 139°31'2210.2
2014-Aug-20 05:25N 34°54' E 139°57'1011.6
2014-Aug-20 04:33N 35°01' E 140°06'2511.3
2014-Aug-20 02:20N 35°17' E 140°30'4010.5
2014-Aug-19 22:31N 35°54' E 140°46'5 5.4
2014-Aug-19 21:31N 35°56' E 140°40'0 0.0
2014-Aug-19 20:27N 35°56' E 140°40'0 0.0
2014-Aug-19 19:33N 35°56' E 140°40'0 0.0
2014-Aug-19 18:33N 35°56' E 140°40'0 0.0
2014-Aug-19 17:30N 35°56' E 140°40'0 0.0
2014-Aug-19 16:25N 35°56' E 140°40'0 0.0
2014-Aug-19 15:33N 35°56' E 140°40'0 0.0
2014-Aug-19 14:33N 35°56' E 140°40'0 0.0
2014-Aug-19 13:32N 35°56' E 140°40'0 0.0
2014-Aug-19 12:33N 35°56' E 140°40'0 0.0
2014-Aug-19 11:33N 35°56' E 140°40'0 0.0
2014-Aug-19 10:32N 35°56' E 140°40'0 0.0
2014-Aug-19 05:26N 35°56' E 140°40'0 0.1
2014-Aug-19 02:33N 35°55' E 140°40'0 0.0
2014-Aug-19 00:10N 35°55' E 140°40'0 0.0
2014-Aug-18 23:26N 35°55' E 140°40'0 0.0
2014-Aug-18 22:32N 35°55' E 140°40'0 0.0
2014-Aug-18 21:33N 35°55' E 140°40'0 0.0
2014-Aug-18 20:33N 35°55' E 140°40'0 0.0
2014-Aug-18 19:33N 35°55' E 140°40'0 0.0
2014-Aug-18 18:28N 35°55' E 140°40'0 0.0
2014-Aug-18 17:33N 35°55' E 140°40'0 0.0
2014-Aug-18 16:33N 35°55' E 140°40'0 0.0
2014-Aug-18 15:33N 35°55' E 140°40'0 0.0
2014-Aug-18 14:31N 35°55' E 140°40'0 0.0
2014-Aug-18 13:33N 35°55' E 140°40'1 1.5
2014-Aug-18 12:33N 35°56' E 140°42'29 9.4
2014-Aug-18 09:29N 35°27' E 140°42'1513.3
2014-Aug-18 08:21N 35°15' E 140°30'2513.5
2014-Aug-18 06:30N 34°59' E 140°07'1713.2
2014-Aug-18 05:12N 34°52' E 139°48'813.0
2014-Aug-18 04:33N 35°00' E 139°44'1212.4
2014-Aug-18 03:33N 35°12' E 139°46'1212.2
2014-Aug-18 02:33N 35°24' E 139°43'1312.7
2014-Aug-18 01:34N 35°33' E 139°54'8 7.6
2014-Aug-18 00:33N 35°40' E 139°57'3 0.6
2014-Aug-17 18:33N 35°37' E 139°59'0 0.0
2014-Aug-17 17:33N 35°37' E 139°59'0 0.0
2014-Aug-17 16:34N 35°37' E 139°59'0 0.0
2014-Aug-17 15:33N 35°37' E 139°59'0 0.0
2014-Aug-17 14:33N 35°37' E 139°59'0 0.0
2014-Aug-17 13:33N 35°37' E 139°59'0 0.0
2014-Aug-17 12:33N 35°37' E 139°59'0 0.0
2014-Aug-17 11:33N 35°37' E 139°59'0 0.0
2014-Aug-17 10:33N 35°37' E 139°59'0 0.0
2014-Aug-17 09:33N 35°37' E 139°59'0 0.0
2014-Aug-17 08:33N 35°37' E 139°59'0 0.0
2014-Aug-17 07:34N 35°37' E 139°59'0 0.0
2014-Aug-17 06:34N 35°37' E 139°59'0 0.0
2014-Aug-17 05:33N 35°37' E 139°59'0 0.1
2014-Aug-17 04:33N 35°37' E 139°59'0 0.0
2014-Aug-17 03:33N 35°37' E 139°59'0 0.0
2014-Aug-17 02:33N 35°37' E 139°59'0 0.0
2014-Aug-17 01:33N 35°37' E 139°59'0 0.1
2014-Aug-17 00:33N 35°37' E 139°59'4 4.3
2014-Aug-16 23:33N 35°41' E 139°57'0 0.0
2014-Aug-16 22:33N 35°41' E 139°57'0 0.0
2014-Aug-16 21:34N 35°41' E 139°57'0 0.0
2014-Aug-16 20:33N 35°41' E 139°57'0 0.0
2014-Aug-16 19:33N 35°41' E 139°57'0 0.0
2014-Aug-16 18:34N 35°41' E 139°57'0 0.0
2014-Aug-16 17:33N 35°41' E 139°57'0 0.0
2014-Aug-16 16:33N 35°41' E 139°57'0 0.0
2014-Aug-16 15:34N 35°41' E 139°57'0 0.0
2014-Aug-16 14:33N 35°41' E 139°57'0 0.0
2014-Aug-16 13:34N 35°41' E 139°57'0 0.0
2014-Aug-16 12:33N 35°41' E 139°57'0 0.0
2014-Aug-16 11:33N 35°41' E 139°57'0 0.0
2014-Aug-16 10:33N 35°41' E 139°57'0 0.0
2014-Aug-16 09:34N 35°41' E 139°57'0 0.0
2014-Aug-16 08:34N 35°41' E 139°57'0 0.0
2014-Aug-16 07:33N 35°41' E 139°57'0 0.0
2014-Aug-16 06:33N 35°41' E 139°57'0 0.1
2014-Aug-16 05:34N 35°41' E 139°57'5 4.9
2014-Aug-16 04:33N 35°36' E 139°57'1111.4
2014-Aug-16 03:33N 35°27' E 139°49'1110.6
2014-Aug-16 02:34N 35°17' E 139°45'1110.9
2014-Aug-16 01:33N 35°06' E 139°45'1211.9
2014-Aug-16 00:31N 34°57' E 139°34'230 9.6
2014-Aug-15 00:27N 34°05' E 135°02'910.1
2014-Aug-14 23:33N 34°14' E 135°03'11 9.8
2014-Aug-14 22:28N 34°23' E 135°08'1011.3
2014-Aug-14 21:32N 34°31' E 135°17'9 9.2
2014-Aug-14 20:33N 34°35' E 135°27'1 0.3
2014-Aug-14 16:30N 34°34' E 135°27'0 0.1
2014-Aug-14 15:30N 34°34' E 135°27'0 0.1
2014-Aug-14 14:33N 34°34' E 135°27'0 0.1
2014-Aug-14 13:32N 34°34' E 135°27'0 0.0
2014-Aug-14 09:15N 34°34' E 135°27'0 0.1
2014-Aug-14 08:26N 34°34' E 135°27'0 0.1
2014-Aug-14 07:28N 34°34' E 135°27'0 0.5
2014-Aug-14 06:31N 34°34' E 135°27'0 0.2
2014-Aug-14 05:32N 34°34' E 135°27'0 0.0
2014-Aug-14 04:24N 34°34' E 135°27'0 0.0
2014-Aug-14 03:33N 34°34' E 135°27'0 0.0
2014-Aug-14 02:33N 34°34' E 135°27'0 0.1
2014-Aug-14 01:26N 34°34' E 135°27'0 0.0
2014-Aug-13 21:18N 34°34' E 135°27'0 0.0
2014-Aug-13 20:29N 34°34' E 135°27'0 0.0
2014-Aug-13 19:28N 34°34' E 135°27'0 0.1
2014-Aug-13 18:32N 34°34' E 135°27'0 0.0
2014-Aug-13 17:32N 34°34' E 135°27'0 0.0
2014-Aug-13 16:31N 34°34' E 135°27'0 0.0
2014-Aug-13 09:23N 34°34' E 135°27'0 0.4
2014-Aug-13 08:33N 34°35' E 135°27'0 0.1
2014-Aug-13 07:31N 34°35' E 135°27'0 0.0
2014-Aug-13 06:31N 34°35' E 135°27'0 0.0
2014-Aug-13 05:31N 34°35' E 135°27'0 0.0
2014-Aug-13 04:29N 34°35' E 135°27'0 0.1
2014-Aug-13 03:33N 34°35' E 135°27'7 7.3
2014-Aug-13 02:33N 34°42' E 135°24'0 0.1
2014-Aug-12 23:33N 34°41' E 135°24'3 2.8
2014-Aug-12 22:33N 34°40' E 135°21'1 0.6
2014-Aug-12 21:33N 34°39' E 135°21'1211.5
2014-Aug-12 20:33N 34°30' E 135°12'1111.5
2014-Aug-12 19:33N 34°20' E 135°05'1211.2
2014-Aug-12 18:29N 34°09' E 135°02'218 9.8
2014-Aug-11 20:08N 34°53' E 139°21'712.3
2014-Aug-11 19:33N 34°58' E 139°28'1212.2
2014-Aug-11 18:34N 35°05' E 139°40'1111.2
2014-Aug-11 17:33N 35°14' E 139°46'1110.7
2014-Aug-11 16:33N 35°25' E 139°43'1111.0
2014-Aug-11 15:33N 35°34' E 139°51'4 4.3
2014-Aug-11 14:33N 35°37' E 139°48'0 0.0
2014-Aug-11 13:33N 35°37' E 139°48'0 0.0
2014-Aug-11 12:32N 35°37' E 139°48'0 0.0
2014-Aug-11 11:33N 35°37' E 139°48'0 0.0
2014-Aug-11 10:33N 35°37' E 139°48'0 0.0
2014-Aug-11 09:33N 35°37' E 139°48'0 0.0
2014-Aug-11 08:33N 35°37' E 139°48'0 0.0
2014-Aug-11 07:33N 35°37' E 139°48'0 0.0
2014-Aug-11 06:33N 35°37' E 139°48'0 0.0
2014-Aug-11 05:33N 35°37' E 139°48'0 0.0
2014-Aug-11 04:34N 35°37' E 139°48'0 0.0
2014-Aug-11 03:33N 35°37' E 139°48'0 0.0
2014-Aug-11 02:33N 35°37' E 139°48'0 0.0
2014-Aug-11 01:33N 35°37' E 139°48'0 0.0
2014-Aug-11 00:33N 35°37' E 139°48'0 0.0
2014-Aug-10 23:33N 35°37' E 139°48'0 0.0
2014-Aug-10 22:33N 35°37' E 139°48'0 0.0
2014-Aug-10 21:33N 35°37' E 139°48'0 0.0
2014-Aug-10 20:33N 35°37' E 139°48'0 0.0
2014-Aug-10 19:34N 35°37' E 139°48'0 0.0
2014-Aug-10 18:33N 35°37' E 139°48'0 0.0
2014-Aug-10 17:33N 35°37' E 139°48'0 0.0
2014-Aug-10 16:33N 35°37' E 139°48'0 0.0
2014-Aug-10 15:34N 35°37' E 139°48'0 0.0
2014-Aug-10 14:33N 35°37' E 139°48'0 0.0
2014-Aug-10 13:33N 35°37' E 139°48'0 0.0
2014-Aug-10 12:33N 35°37' E 139°48'0 0.0
2014-Aug-10 11:34N 35°37' E 139°48'0 0.0
2014-Aug-10 10:33N 35°37' E 139°48'0 0.0
2014-Aug-10 09:34N 35°37' E 139°48'0 0.0
2014-Aug-10 08:33N 35°37' E 139°48'  

Dump ship's entire track history